createdAt,value
2019-02-20T00:03:52.922Z,99.90
2019-02-20T00:08:58.658Z,99.90
2019-02-20T00:14:03.307Z,99.90
2019-02-20T00:19:08.412Z,99.90
2019-02-20T00:24:13.392Z,99.90
2019-02-20T00:29:19.321Z,99.90
2019-02-20T00:34:24.561Z,99.90
2019-02-20T00:39:29.018Z,99.90
2019-02-20T00:44:52.735Z,99.90
2019-02-20T00:49:57.830Z,99.90
2019-02-20T00:55:02.906Z,99.90
2019-02-20T01:00:07.940Z,99.90
2019-02-20T01:05:12.386Z,99.90
2019-02-20T01:10:17.619Z,99.90
2019-02-20T01:15:22.625Z,99.90
2019-02-20T01:20:27.457Z,99.90
2019-02-20T01:25:32.214Z,99.90
2019-02-20T01:30:36.813Z,99.90
2019-02-20T01:35:41.840Z,99.90
2019-02-20T01:40:49.492Z,99.90
2019-02-20T01:45:54.560Z,99.90
2019-02-20T01:50:59.120Z,99.90
2019-02-20T01:56:04.208Z,99.90
2019-02-20T02:01:08.615Z,99.90
2019-02-20T02:06:14.014Z,99.90
2019-02-20T02:11:19.188Z,99.90
2019-02-20T02:16:23.803Z,99.90
2019-02-20T02:21:28.790Z,99.90
2019-02-20T02:26:33.760Z,99.90
2019-02-20T02:31:38.916Z,99.90
2019-02-20T02:36:45.049Z,99.90
2019-02-20T02:41:49.389Z,99.90
2019-02-20T02:46:54.435Z,99.90
2019-02-20T02:51:58.867Z,99.90
2019-02-20T02:57:03.659Z,99.90
2019-02-20T03:02:08.026Z,99.90
2019-02-20T03:07:13.096Z,99.90
2019-02-20T03:12:17.717Z,99.90
2019-02-20T03:17:22.773Z,99.90
2019-02-20T03:22:27.114Z,99.90
2019-02-20T03:27:31.956Z,99.90
2019-02-20T03:32:36.703Z,99.90
2019-02-20T03:37:43.758Z,99.90
2019-02-20T03:42:49.777Z,99.90
2019-02-20T03:47:55.023Z,99.90
2019-02-20T03:53:00.383Z,99.90
2019-02-20T03:58:05.334Z,99.90
2019-02-20T04:03:11.402Z,99.90
2019-02-20T04:08:16.266Z,99.90
2019-02-20T04:13:21.419Z,99.90
2019-02-20T04:18:26.467Z,99.90
2019-02-20T04:23:31.668Z,99.90
2019-02-20T04:28:37.013Z,99.90
2019-02-20T04:33:42.031Z,99.90
2019-02-20T04:38:47.337Z,99.90
2019-02-20T04:43:51.959Z,99.90
2019-02-20T04:48:56.586Z,99.90
2019-02-20T04:54:01.113Z,99.90
2019-02-20T04:59:05.781Z,99.90
2019-02-20T05:04:10.992Z,99.90
2019-02-20T05:09:15.364Z,99.90
2019-02-20T05:14:23.139Z,99.90
2019-02-20T05:19:29.050Z,99.90
2019-02-20T05:24:33.808Z,99.90
2019-02-20T05:29:38.674Z,99.90
2019-02-20T05:34:43.796Z,99.90
2019-02-20T05:39:48.785Z,99.90
2019-02-20T05:44:53.297Z,99.90
2019-02-20T05:50:00.353Z,99.90
2019-02-20T05:55:04.941Z,99.90
2019-02-20T06:00:15.180Z,99.90
2019-02-20T06:05:20.291Z,99.90
2019-02-20T06:10:25.652Z,99.90
2019-02-20T06:15:31.046Z,99.90
2019-02-20T06:20:37.208Z,99.90
2019-02-20T06:25:44.198Z,99.90
2019-02-20T06:30:49.384Z,99.90
2019-02-20T06:35:55.768Z,99.90
2019-02-20T06:41:00.758Z,99.90
2019-02-20T06:46:08.658Z,99.90
2019-02-20T06:51:13.712Z,99.90
2019-02-20T06:56:18.879Z,99.90
2019-02-20T07:01:24.054Z,99.90
2019-02-20T07:06:56.477Z,99.90
2019-02-20T07:12:17.314Z,99.90
2019-02-20T07:17:51.356Z,99.90
2019-02-20T07:23:30.808Z,99.90
2019-02-20T07:29:08.591Z,99.90
2019-02-20T07:34:13.125Z,99.90
2019-02-20T07:39:20.536Z,99.90
2019-02-20T07:44:25.297Z,99.90
2019-02-20T07:49:33.717Z,99.90
2019-02-20T07:54:38.564Z,99.90
2019-02-20T07:59:43.007Z,99.90
2019-02-20T08:04:48.099Z,99.90
2019-02-20T08:09:52.977Z,99.90
2019-02-20T08:14:57.743Z,99.90
2019-02-20T08:20:02.151Z,99.90
2019-02-20T08:25:06.645Z,99.90
2019-02-20T08:30:13.799Z,99.90
2019-02-20T08:35:18.516Z,99.90
2019-02-20T08:40:23.995Z,99.90
2019-02-20T08:45:28.990Z,99.90
2019-02-20T08:50:33.678Z,99.90
2019-02-20T08:55:38.416Z,99.90
2019-02-20T09:00:46.291Z,99.90
2019-02-20T09:05:52.331Z,99.90
2019-02-20T09:10:56.976Z,99.90
2019-02-20T09:16:01.447Z,99.90
2019-02-20T09:21:05.939Z,99.90
2019-02-20T09:26:10.588Z,95.30
2019-02-20T09:31:15.249Z,96.10
2019-02-20T09:36:22.174Z,93.60
2019-02-20T09:41:27.268Z,90.60
2019-02-20T09:46:32.053Z,93.60
2019-02-20T09:51:36.509Z,94.70
2019-02-20T09:56:41.239Z,92.90
2019-02-20T10:01:45.963Z,89.00
2019-02-20T10:06:50.721Z,83.30
2019-02-20T10:11:55.140Z,88.70
2019-02-20T10:17:00.081Z,90.60
2019-02-20T10:22:05.368Z,91.40
2019-02-20T10:27:09.925Z,92.00
2019-02-20T10:32:14.531Z,94.90
2019-02-20T10:37:19.099Z,96.60
2019-02-20T10:42:24.055Z,98.60
2019-02-20T10:47:29.502Z,98.40
2019-02-20T10:52:34.237Z,98.10
2019-02-20T10:57:39.189Z,98.30
2019-02-20T11:02:44.173Z,95.90
2019-02-20T11:07:49.387Z,96.10
2019-02-20T11:12:53.936Z,97.20
2019-02-20T11:17:58.531Z,98.80
2019-02-20T11:23:03.430Z,97.30
2019-02-20T11:28:09.478Z,97.00
2019-02-20T11:33:14.744Z,94.60
2019-02-20T11:38:19.045Z,93.90
2019-02-20T11:43:23.677Z,92.60
2019-02-20T11:48:28.911Z,93.20
2019-02-20T11:53:37.121Z,92.80
2019-02-20T11:58:39.754Z,90.60
2019-02-20T12:03:46.416Z,90.60
2019-02-20T12:08:51.621Z,91.30
2019-02-20T12:13:56.265Z,91.80
2019-02-20T12:19:01.251Z,87.60
2019-02-20T12:24:05.955Z,85.50
2019-02-20T12:29:11.286Z,83.30
2019-02-20T12:34:16.687Z,86.90
2019-02-20T12:39:21.390Z,81.50
2019-02-20T12:44:25.795Z,83.60
2019-02-20T12:49:31.578Z,87.10
2019-02-20T12:54:36.575Z,86.10
2019-02-20T12:59:41.807Z,85.80
2019-02-20T13:04:48.356Z,86.50
2019-02-20T13:09:53.203Z,83.10
2019-02-20T13:14:57.587Z,79.60
2019-02-20T13:20:02.710Z,79.60
2019-02-20T13:25:07.290Z,77.70
2019-02-20T13:30:12.322Z,80.50
2019-02-20T13:35:21.805Z,80.40
2019-02-20T13:40:26.457Z,81.50
2019-02-20T13:45:31.450Z,80.60
2019-02-20T13:50:38.464Z,80.50
2019-02-20T13:55:44.995Z,81.50
2019-02-20T14:01:01.181Z,83.60
2019-02-20T14:06:05.982Z,83.80
2019-02-20T14:11:11.029Z,83.50
2019-02-20T14:16:17.293Z,85.90
2019-02-20T14:21:22.108Z,83.60
2019-02-20T14:26:27.014Z,80.90
2019-02-20T14:31:32.026Z,79.00
2019-02-20T14:36:37.473Z,76.60
2019-02-20T14:41:42.379Z,74.30
2019-02-20T14:46:47.032Z,73.40
2019-02-20T14:51:52.049Z,73.60
2019-02-20T14:56:56.517Z,73.50
2019-02-20T15:02:01.281Z,75.20
2019-02-20T15:07:06.471Z,72.60
2019-02-20T15:12:11.369Z,74.30
2019-02-20T15:17:17.823Z,74.40
2019-02-20T15:22:22.726Z,74.30
2019-02-20T15:27:28.873Z,75.00
2019-02-20T15:32:34.122Z,76.40
2019-02-20T15:37:39.218Z,78.10
2019-02-20T15:42:45.495Z,79.10
2019-02-20T15:47:50.358Z,80.90
2019-02-20T15:52:54.890Z,81.70
2019-02-20T15:58:00.458Z,81.30
2019-02-20T16:03:06.105Z,82.30
2019-02-20T16:08:11.127Z,87.30
2019-02-20T16:13:16.038Z,92.10
2019-02-20T16:18:21.020Z,95.10
2019-02-20T16:23:28.508Z,96.20
2019-02-20T16:28:34.189Z,97.40
2019-02-20T16:33:40.462Z,99.10
2019-02-20T16:38:46.115Z,99.90
2019-02-20T16:43:52.786Z,99.90
2019-02-20T16:48:58.400Z,99.90
2019-02-20T16:54:04.937Z,99.90
2019-02-20T16:59:09.885Z,99.90
2019-02-20T17:04:16.944Z,99.90
2019-02-20T17:09:23.215Z,99.90
2019-02-20T17:14:28.212Z,99.90
2019-02-20T17:19:34.220Z,99.90
2019-02-20T17:24:48.091Z,99.90
2019-02-20T17:29:53.175Z,99.90
2019-02-20T17:34:59.056Z,99.90
2019-02-20T17:40:04.631Z,99.90
2019-02-20T17:45:09.956Z,99.90
2019-02-20T17:50:16.109Z,99.90
2019-02-20T17:55:20.761Z,99.90
2019-02-20T18:00:27.908Z,99.90
2019-02-20T18:05:32.417Z,99.90
2019-02-20T18:10:37.997Z,99.90
2019-02-20T18:15:43.223Z,99.90
2019-02-20T18:20:47.934Z,99.90
2019-02-20T18:25:53.452Z,99.90
2019-02-20T18:31:00.030Z,99.90
2019-02-20T18:36:05.348Z,99.90
2019-02-20T18:41:10.497Z,99.90
2019-02-20T18:46:17.447Z,99.90
2019-02-20T18:51:22.344Z,99.90
2019-02-20T18:56:29.261Z,99.90
2019-02-20T19:01:33.965Z,99.90
2019-02-20T19:06:40.905Z,99.90
2019-02-20T19:12:34.688Z,99.90
2019-02-20T19:18:24.614Z,99.90
2019-02-20T19:24:29.244Z,99.90
2019-02-20T19:30:12.103Z,99.90
2019-02-20T19:36:06.752Z,99.90
2019-02-20T19:42:08.634Z,99.90
2019-02-20T19:47:53.494Z,99.90
2019-02-20T19:53:31.054Z,99.90
2019-02-20T19:58:55.338Z,99.90
2019-02-20T20:04:40.369Z,99.90
2019-02-20T20:10:12.585Z,99.90
2019-02-20T20:15:42.267Z,99.90
2019-02-20T20:21:12.955Z,99.90
2019-02-20T20:27:07.165Z,99.90
2019-02-20T20:33:17.608Z,99.90
2019-02-20T20:38:50.322Z,99.90
2019-02-20T20:44:28.108Z,99.90
2019-02-20T20:50:18.622Z,99.90
2019-02-20T20:56:07.793Z,99.90
2019-02-20T21:01:55.068Z,99.90
2019-02-20T21:07:56.313Z,99.90
2019-02-20T21:13:28.493Z,99.90
2019-02-20T21:19:38.022Z,99.90
2019-02-20T21:25:26.724Z,99.90
2019-02-20T21:30:54.891Z,99.90
2019-02-20T21:36:15.860Z,99.90
2019-02-20T21:42:04.425Z,99.90
2019-02-20T21:47:44.716Z,99.90
2019-02-20T21:53:29.012Z,99.90
2019-02-20T21:59:19.762Z,99.90
2019-02-20T22:05:08.578Z,99.90
2019-02-20T22:10:48.337Z,99.90
2019-02-20T22:16:34.827Z,99.90
2019-02-20T22:22:39.131Z,99.90
2019-02-20T22:28:41.026Z,99.90
2019-02-20T22:34:25.899Z,99.90
2019-02-20T22:39:43.477Z,99.90
2019-02-20T22:45:36.399Z,99.90
2019-02-20T22:51:27.649Z,99.90
2019-02-20T22:57:21.326Z,99.90
2019-02-20T23:02:58.989Z,99.90
2019-02-20T23:08:11.923Z,99.90
2019-02-20T23:13:27.664Z,99.90
2019-02-20T23:18:32.277Z,99.90
2019-02-20T23:23:36.893Z,99.90
2019-02-20T23:28:41.505Z,99.90
2019-02-20T23:33:46.551Z,99.90
2019-02-20T23:38:51.838Z,99.90
2019-02-20T23:43:56.132Z,99.90
2019-02-20T23:49:00.687Z,99.90
2019-02-20T23:54:05.404Z,99.90
2019-02-20T23:59:10.401Z,99.90
